createdAt,value
2019-03-28T00:01:14.704Z,3.40
2019-03-28T00:03:43.194Z,3.50
2019-03-28T00:06:11.668Z,3.60
2019-03-28T00:08:40.156Z,3.50
2019-03-28T00:11:08.605Z,3.50
2019-03-28T00:13:37.097Z,3.50
2019-03-28T00:16:05.697Z,3.40
2019-03-28T00:18:34.164Z,3.50
2019-03-28T00:21:02.614Z,3.80
2019-03-28T00:23:32.751Z,3.90
2019-03-28T00:26:01.243Z,3.90
2019-03-28T00:28:29.757Z,3.80
2019-03-28T00:30:58.243Z,3.80
2019-03-28T00:33:27.007Z,3.70
2019-03-28T00:35:55.467Z,3.70
2019-03-28T00:38:23.933Z,3.70
2019-03-28T00:40:52.410Z,3.70
2019-03-28T00:43:20.871Z,3.60
2019-03-28T00:45:49.352Z,3.60
2019-03-28T00:48:17.802Z,3.60
2019-03-28T00:50:46.293Z,3.60
2019-03-28T00:53:14.752Z,3.60
2019-03-28T00:55:43.386Z,3.60
2019-03-28T00:58:11.877Z,3.70
2019-03-28T01:00:40.622Z,3.70
2019-03-28T01:03:09.174Z,3.70
2019-03-28T01:05:37.881Z,3.70
2019-03-28T01:08:06.365Z,3.70
2019-03-28T01:10:34.883Z,3.70
2019-03-28T01:13:03.368Z,3.70
2019-03-28T01:15:31.825Z,3.80
2019-03-28T01:18:00.307Z,3.90
2019-03-28T01:20:28.776Z,3.70
2019-03-28T01:22:57.265Z,3.90
2019-03-28T01:25:25.719Z,3.80
2019-03-28T01:27:54.522Z,3.80
2019-03-28T01:30:23.323Z,3.80
2019-03-28T01:32:51.807Z,3.80
2019-03-28T01:35:20.270Z,3.90
2019-03-28T01:37:48.730Z,3.90
2019-03-28T01:40:17.191Z,3.90
2019-03-28T01:42:45.647Z,4.00
2019-03-28T01:45:14.126Z,4.00
2019-03-28T01:47:43.174Z,3.90
2019-03-28T01:50:12.177Z,3.80
2019-03-28T01:52:40.645Z,3.90
2019-03-28T01:55:09.200Z,3.90
2019-03-28T01:57:37.659Z,4.00
2019-03-28T02:00:09.153Z,4.00
2019-03-28T02:02:37.609Z,4.10
2019-03-28T02:05:09.335Z,4.10
2019-03-28T02:07:37.798Z,4.00
2019-03-28T02:10:06.687Z,4.10
2019-03-28T02:12:35.185Z,4.20
2019-03-28T02:15:05.853Z,4.10
2019-03-28T02:17:34.317Z,4.00
2019-03-28T02:20:03.341Z,4.10
2019-03-28T02:22:31.825Z,4.10
2019-03-28T02:25:00.391Z,4.00
2019-03-28T02:27:28.844Z,4.10
2019-03-28T02:29:57.309Z,4.10
2019-03-28T02:32:25.768Z,4.10
2019-03-28T02:34:54.241Z,4.20
2019-03-28T02:37:22.695Z,4.40
2019-03-28T02:39:51.170Z,4.30
2019-03-28T02:42:19.884Z,4.10
2019-03-28T02:44:48.353Z,4.00
2019-03-28T02:47:16.810Z,4.00
2019-03-28T02:49:45.886Z,3.90
2019-03-28T02:52:14.434Z,3.90
2019-03-28T02:54:42.923Z,4.00
2019-03-28T02:57:11.378Z,4.00
2019-03-28T02:59:39.923Z,4.00
2019-03-28T03:02:08.754Z,4.00
2019-03-28T03:04:37.341Z,4.00
2019-03-28T03:07:05.845Z,4.00
2019-03-28T03:09:34.326Z,4.10
2019-03-28T03:12:03.370Z,4.20
2019-03-28T03:14:31.896Z,4.10
2019-03-28T03:17:00.389Z,4.00
2019-03-28T03:19:28.846Z,3.90
2019-03-28T03:21:57.321Z,3.80
2019-03-28T03:24:25.805Z,3.80
2019-03-28T03:26:54.611Z,3.80
2019-03-28T03:29:23.135Z,3.90
2019-03-28T03:31:53.606Z,3.90
2019-03-28T03:34:21.799Z,3.90
2019-03-28T03:36:50.321Z,4.00
2019-03-28T03:39:18.817Z,4.00
2019-03-28T03:41:47.354Z,4.10
2019-03-28T03:44:16.177Z,4.30
2019-03-28T03:46:44.911Z,4.20
2019-03-28T03:49:13.398Z,4.30
2019-03-28T03:51:41.843Z,4.40
2019-03-28T03:54:10.342Z,4.40
2019-03-28T03:56:38.897Z,4.50
2019-03-28T03:59:07.433Z,4.40
2019-03-28T04:01:35.906Z,4.20
2019-03-28T04:04:04.446Z,4.20
2019-03-28T04:06:32.923Z,4.20
2019-03-28T04:09:01.380Z,4.20
2019-03-28T04:11:29.853Z,4.30
2019-03-28T04:13:58.302Z,4.30
2019-03-28T04:16:27.068Z,4.30
2019-03-28T04:18:55.592Z,4.20
2019-03-28T04:21:24.080Z,4.00
2019-03-28T04:23:52.539Z,3.90
2019-03-28T04:26:20.990Z,3.80
2019-03-28T04:28:49.470Z,4.20
2019-03-28T04:31:17.999Z,4.10
2019-03-28T04:33:46.847Z,4.10
2019-03-28T04:36:15.347Z,4.10
2019-03-28T04:38:43.803Z,4.10
2019-03-28T04:41:12.286Z,4.10
2019-03-28T04:43:40.778Z,4.10
2019-03-28T04:46:09.298Z,4.00
2019-03-28T04:48:38.053Z,4.00
2019-03-28T04:51:06.570Z,4.10
2019-03-28T04:53:35.035Z,4.10
2019-03-28T04:56:03.788Z,4.10
2019-03-28T04:58:43.775Z,4.40
2019-03-28T05:01:02.470Z,4.40
2019-03-28T05:03:30.934Z,4.60
2019-03-28T05:05:59.391Z,4.40
2019-03-28T05:08:27.859Z,4.30
2019-03-28T05:10:56.329Z,4.30
2019-03-28T05:13:24.820Z,4.30
2019-03-28T05:15:53.285Z,4.30
2019-03-28T05:18:21.997Z,4.20
2019-03-28T05:20:50.464Z,4.10
2019-03-28T05:23:18.916Z,4.10
2019-03-28T05:25:47.391Z,4.10
2019-03-28T05:28:15.872Z,4.00
2019-03-28T05:30:44.362Z,4.20
2019-03-28T05:33:12.835Z,4.10
2019-03-28T05:35:41.391Z,4.20
2019-03-28T05:38:09.848Z,4.20
2019-03-28T05:40:38.289Z,4.10
2019-03-28T05:43:07.024Z,4.20
2019-03-28T05:45:35.491Z,4.10
2019-03-28T05:48:04.031Z,4.10
2019-03-28T05:50:32.474Z,4.00
2019-03-28T05:53:00.959Z,3.90
2019-03-28T05:55:29.676Z,3.90
2019-03-28T05:57:58.199Z,3.90
2019-03-28T06:00:26.770Z,4.00
2019-03-28T06:02:55.249Z,4.00
2019-03-28T06:05:23.709Z,4.00
2019-03-28T06:07:52.193Z,4.00
2019-03-28T06:10:20.677Z,4.00
2019-03-28T06:12:49.142Z,4.00
2019-03-28T06:15:17.606Z,3.90
2019-03-28T06:17:46.145Z,3.90
2019-03-28T06:20:14.773Z,3.90
2019-03-28T06:22:43.214Z,4.20
2019-03-28T06:25:11.818Z,4.10
2019-03-28T06:27:40.337Z,4.40
2019-03-28T06:30:09.661Z,4.30
2019-03-28T06:32:43.087Z,4.40
2019-03-28T06:35:08.643Z,4.20
2019-03-28T06:37:37.116Z,4.30
2019-03-28T06:40:06.098Z,4.20
2019-03-28T06:42:34.966Z,4.50
2019-03-28T06:45:04.792Z,4.60
2019-03-28T06:47:33.256Z,4.60
2019-03-28T06:50:02.066Z,4.80
2019-03-28T06:52:30.583Z,4.70
2019-03-28T06:54:59.058Z,4.70
2019-03-28T06:57:27.531Z,4.90
2019-03-28T06:59:55.992Z,4.90
2019-03-28T07:02:24.472Z,4.90
2019-03-28T07:04:53.006Z,5.00
2019-03-28T07:07:21.492Z,5.10
2019-03-28T07:09:50.019Z,5.20
2019-03-28T07:12:18.651Z,5.30
2019-03-28T07:14:47.082Z,5.20
2019-03-28T07:17:15.869Z,5.20
2019-03-28T07:19:44.337Z,5.30
2019-03-28T07:22:12.830Z,5.20
2019-03-28T07:24:41.308Z,5.30
2019-03-28T07:27:09.791Z,5.30
2019-03-28T07:29:50.345Z,5.50
2019-03-28T07:32:08.510Z,5.50
2019-03-28T07:34:37.010Z,5.70
2019-03-28T07:37:05.792Z,5.70
2019-03-28T07:39:35.855Z,5.60
2019-03-28T07:42:04.370Z,5.70
2019-03-28T07:44:32.843Z,5.90
2019-03-28T07:47:01.294Z,6.00
2019-03-28T07:49:29.756Z,6.00
2019-03-28T07:51:58.594Z,6.00
2019-03-28T07:54:27.387Z,6.20
2019-03-28T07:56:56.185Z,6.30
2019-03-28T07:59:24.640Z,6.40
2019-03-28T08:01:53.448Z,6.40
2019-03-28T08:04:22.239Z,6.40
2019-03-28T08:06:51.857Z,6.40
2019-03-28T08:09:20.452Z,6.60
2019-03-28T08:11:48.947Z,6.60
2019-03-28T08:14:17.502Z,6.80
2019-03-28T08:16:45.997Z,6.90
2019-03-28T08:19:14.467Z,7.00
2019-03-28T08:21:43.023Z,7.10
2019-03-28T08:24:11.486Z,7.10
2019-03-28T08:26:40.007Z,7.20
2019-03-28T08:29:08.491Z,7.40
2019-03-28T08:31:40.757Z,7.30
2019-03-28T08:34:08.773Z,7.30
2019-03-28T08:36:37.983Z,7.30
2019-03-28T08:39:07.180Z,7.40
2019-03-28T08:41:35.636Z,7.50
2019-03-28T08:44:07.176Z,7.70
2019-03-28T08:46:34.394Z,7.60
2019-03-28T08:49:02.830Z,7.60
2019-03-28T08:51:31.752Z,7.60
2019-03-28T08:54:00.221Z,7.70
2019-03-28T08:56:28.680Z,7.70
2019-03-28T08:58:57.169Z,7.80
2019-03-28T09:01:26.739Z,7.90
2019-03-28T09:03:55.192Z,7.90
2019-03-28T09:06:23.672Z,8.00
2019-03-28T09:08:52.496Z,7.90
2019-03-28T09:11:21.566Z,8.00
2019-03-28T09:13:50.287Z,8.20
2019-03-28T09:16:18.814Z,8.40
2019-03-28T09:18:47.282Z,8.40
2019-03-28T09:21:15.735Z,8.30
2019-03-28T09:23:44.202Z,8.20
2019-03-28T09:26:12.732Z,8.10
2019-03-28T09:28:41.229Z,8.70
2019-03-28T09:31:19.703Z,8.70
2019-03-28T09:33:40.821Z,8.50
2019-03-28T09:36:09.691Z,8.70
2019-03-28T09:38:38.185Z,8.70
2019-03-28T09:41:06.650Z,9.00
2019-03-28T09:43:35.111Z,8.70
2019-03-28T09:46:03.582Z,8.80
2019-03-28T09:48:32.029Z,9.10
2019-03-28T09:51:00.677Z,8.90
2019-03-28T09:53:29.239Z,8.80
2019-03-28T09:55:58.041Z,9.00
2019-03-28T09:58:26.489Z,8.90
2019-03-28T10:01:02.789Z,9.00
2019-03-28T10:03:26.880Z,9.10
2019-03-28T10:05:55.342Z,9.30
2019-03-28T10:08:23.807Z,9.20
2019-03-28T10:10:52.302Z,9.00
2019-03-28T10:13:20.734Z,9.00
2019-03-28T10:15:49.205Z,9.10
2019-03-28T10:18:17.702Z,9.10
2019-03-28T10:20:46.248Z,9.10
2019-03-28T10:23:14.805Z,9.30
2019-03-28T10:25:43.258Z,9.60
2019-03-28T10:28:11.991Z,9.50
2019-03-28T10:30:42.299Z,9.50
2019-03-28T10:33:10.849Z,9.50
2019-03-28T10:35:39.372Z,9.60
2019-03-28T10:38:07.915Z,9.60
2019-03-28T10:40:36.686Z,10.10
2019-03-28T10:43:05.585Z,10.30
2019-03-28T10:45:34.153Z,10.10
2019-03-28T10:48:03.024Z,10.00
2019-03-28T10:50:40.780Z,9.90
2019-03-28T10:53:02.091Z,10.00
2019-03-28T10:55:30.553Z,10.30
2019-03-28T10:57:59.014Z,10.10
2019-03-28T11:00:27.482Z,10.10
2019-03-28T11:02:56.016Z,10.10
2019-03-28T11:05:24.523Z,10.10
2019-03-28T11:07:52.976Z,10.00
2019-03-28T11:10:21.834Z,10.10
2019-03-28T11:12:50.363Z,10.20
2019-03-28T11:15:18.844Z,10.40
2019-03-28T11:17:47.629Z,10.60
2019-03-28T11:20:16.428Z,10.40
2019-03-28T11:22:44.973Z,10.30
2019-03-28T11:25:13.635Z,10.30
2019-03-28T11:27:42.124Z,10.50
2019-03-28T11:30:10.713Z,10.40
2019-03-28T11:32:39.203Z,10.30
2019-03-28T11:35:08.106Z,10.20
2019-03-28T11:37:37.405Z,10.20
2019-03-28T11:40:10.530Z,10.20
2019-03-28T11:42:39.257Z,10.30
2019-03-28T11:45:09.559Z,10.50
2019-03-28T11:47:38.475Z,10.50
2019-03-28T11:50:08.884Z,10.40
2019-03-28T11:52:37.435Z,10.50
2019-03-28T11:55:06.649Z,10.50
2019-03-28T11:57:35.859Z,10.50
2019-03-28T12:00:11.835Z,10.40
2019-03-28T12:02:40.442Z,10.20
2019-03-28T12:05:09.330Z,10.20
2019-03-28T12:07:37.871Z,10.10
2019-03-28T12:10:08.471Z,10.30
2019-03-28T12:12:37.039Z,8.70
2019-03-28T12:15:07.456Z,10.50
2019-03-28T12:17:35.929Z,10.30
2019-03-28T12:20:06.902Z,10.20
2019-03-28T12:22:35.432Z,10.10
2019-03-28T12:25:07.334Z,10.10
2019-03-28T12:27:35.813Z,10.10
2019-03-28T12:30:10.815Z,10.00
2019-03-28T12:32:39.271Z,10.10
2019-03-28T12:35:08.479Z,10.20
2019-03-28T12:37:37.087Z,10.20
2019-03-28T12:40:07.236Z,10.50
2019-03-28T12:42:35.722Z,10.60
2019-03-28T12:45:07.117Z,10.60
2019-03-28T12:47:42.392Z,10.90
2019-03-28T12:50:08.423Z,11.10
2019-03-28T12:52:36.997Z,11.00
2019-03-28T12:55:07.702Z,11.10
2019-03-28T12:57:36.161Z,11.10
2019-03-28T13:00:09.971Z,11.00
2019-03-28T13:02:38.503Z,11.00
2019-03-28T13:05:08.423Z,10.80
2019-03-28T13:07:37.049Z,10.70
2019-03-28T13:10:10.136Z,10.60
2019-03-28T13:12:38.600Z,10.50
2019-03-28T13:15:07.519Z,10.40
2019-03-28T13:17:36.147Z,10.50
2019-03-28T13:20:07.945Z,10.50
2019-03-28T13:22:36.418Z,10.40
2019-03-28T13:25:06.542Z,10.50
2019-03-28T13:27:36.487Z,10.50
2019-03-28T13:30:13.497Z,10.40
2019-03-28T13:32:42.543Z,10.40
2019-03-28T13:35:11.455Z,10.40
2019-03-28T13:37:39.937Z,10.40
2019-03-28T13:40:08.971Z,10.40
2019-03-28T13:42:38.822Z,10.50
2019-03-28T13:45:10.308Z,10.50
2019-03-28T13:47:38.836Z,10.60
2019-03-28T13:50:09.869Z,10.70
2019-03-28T13:52:38.327Z,10.80
2019-03-28T13:55:07.754Z,10.90
2019-03-28T13:57:36.389Z,10.80
2019-03-28T14:00:06.655Z,10.90
2019-03-28T14:02:35.583Z,11.10
2019-03-28T14:05:05.711Z,11.30
2019-03-28T14:07:34.187Z,11.60
2019-03-28T14:10:02.796Z,11.60
2019-03-28T14:12:31.616Z,11.60
2019-03-28T14:15:00.400Z,11.50
2019-03-28T14:17:29.192Z,11.40
2019-03-28T14:19:57.661Z,11.30
2019-03-28T14:22:26.415Z,11.40
2019-03-28T14:24:55.194Z,11.60
2019-03-28T14:27:23.647Z,11.70
2019-03-28T14:29:52.136Z,11.60
2019-03-28T14:32:20.610Z,11.70
2019-03-28T14:34:49.097Z,11.50
2019-03-28T14:37:17.552Z,11.30
2019-03-28T14:39:49.107Z,11.20
2019-03-28T14:42:19.427Z,11.10
2019-03-28T14:44:46.413Z,11.10
2019-03-28T14:47:14.883Z,11.10
2019-03-28T14:49:43.349Z,11.10
2019-03-28T14:52:11.835Z,11.00
2019-03-28T14:54:40.333Z,11.00
2019-03-28T14:57:08.931Z,11.00
2019-03-28T14:59:38.941Z,11.00
2019-03-28T15:02:07.493Z,11.20
2019-03-28T15:04:35.975Z,11.00
2019-03-28T15:07:07.156Z,10.90
2019-03-28T15:09:35.808Z,11.00
2019-03-28T15:12:04.596Z,10.90
2019-03-28T15:14:33.100Z,11.00
2019-03-28T15:17:01.577Z,10.90
2019-03-28T15:19:30.065Z,10.90
2019-03-28T15:21:58.545Z,10.80
2019-03-28T15:24:27.322Z,10.80
2019-03-28T15:26:55.836Z,10.60
2019-03-28T15:29:24.348Z,10.60
2019-03-28T15:31:52.809Z,10.80
2019-03-28T15:34:21.305Z,10.70
2019-03-28T15:36:49.753Z,10.70
2019-03-28T15:39:18.235Z,10.60
2019-03-28T15:41:46.696Z,10.70
2019-03-28T15:44:15.260Z,10.70
2019-03-28T15:46:43.726Z,10.60
2019-03-28T15:49:12.207Z,10.70
2019-03-28T15:51:40.667Z,10.60
2019-03-28T15:54:09.124Z,10.50
2019-03-28T15:56:37.593Z,10.50
2019-03-28T15:59:06.108Z,10.60
2019-03-28T16:01:34.653Z,10.50
2019-03-28T16:04:03.094Z,10.40
2019-03-28T16:06:31.570Z,10.20
2019-03-28T16:09:00.045Z,10.20
2019-03-28T16:11:28.527Z,10.20
2019-03-28T16:13:56.977Z,10.10
2019-03-28T16:16:25.477Z,10.30
2019-03-28T16:18:53.926Z,10.30
2019-03-28T16:21:22.404Z,10.50
2019-03-28T16:23:51.185Z,10.40
2019-03-28T16:26:19.654Z,10.40
2019-03-28T16:28:48.145Z,10.30
2019-03-28T16:31:16.664Z,10.20
2019-03-28T16:33:45.219Z,10.20
2019-03-28T16:36:13.752Z,10.20
2019-03-28T16:38:42.264Z,10.40
2019-03-28T16:41:10.777Z,10.40
2019-03-28T16:43:39.245Z,10.30
2019-03-28T16:46:07.929Z,10.20
2019-03-28T16:48:36.466Z,10.30
2019-03-28T16:51:04.963Z,10.20
2019-03-28T16:53:33.560Z,10.10
2019-03-28T16:56:02.051Z,10.10
2019-03-28T16:58:30.504Z,10.00
2019-03-28T17:00:58.987Z,9.90
2019-03-28T17:03:27.444Z,10.00
2019-03-28T17:05:56.237Z,10.20
2019-03-28T17:08:26.636Z,10.10
2019-03-28T17:10:55.319Z,10.00
2019-03-28T17:13:23.775Z,9.80
2019-03-28T17:15:52.679Z,9.70
2019-03-28T17:18:21.141Z,9.70
2019-03-28T17:20:50.395Z,9.90
2019-03-28T17:23:19.097Z,9.90
2019-03-28T17:25:47.645Z,10.10
2019-03-28T17:28:16.263Z,10.10
2019-03-28T17:30:45.102Z,10.10
2019-03-28T17:33:13.637Z,10.00
2019-03-28T17:35:42.245Z,9.90
2019-03-28T17:38:10.717Z,10.10
2019-03-28T17:40:39.183Z,10.00
2019-03-28T17:43:07.669Z,9.90
2019-03-28T17:45:36.129Z,9.90
2019-03-28T17:48:05.313Z,9.80
2019-03-28T17:50:33.965Z,9.60
2019-03-28T17:53:02.520Z,9.70
2019-03-28T17:55:31.052Z,9.60
2019-03-28T17:57:59.556Z,9.60
2019-03-28T18:00:28.316Z,9.50
2019-03-28T18:03:08.442Z,9.50
2019-03-28T18:05:27.198Z,9.50
2019-03-28T18:07:56.027Z,9.30
2019-03-28T18:10:24.637Z,9.20
2019-03-28T18:12:53.124Z,9.20
2019-03-28T18:15:21.638Z,9.30
2019-03-28T18:17:50.148Z,9.30
2019-03-28T18:20:18.900Z,9.20
2019-03-28T18:22:47.359Z,9.20
2019-03-28T18:25:15.991Z,9.20
2019-03-28T18:27:44.804Z,9.30
2019-03-28T18:30:13.486Z,9.10
2019-03-28T18:32:41.959Z,9.20
2019-03-28T18:35:10.818Z,9.40
2019-03-28T18:37:39.301Z,9.40
2019-03-28T18:40:08.993Z,9.30
2019-03-28T18:42:37.847Z,9.30
2019-03-28T18:45:07.986Z,9.10
2019-03-28T18:47:36.812Z,9.20
2019-03-28T18:50:07.113Z,9.20
2019-03-28T18:52:35.728Z,9.20
2019-03-28T18:55:06.492Z,9.40
2019-03-28T18:57:34.987Z,9.40
2019-03-28T19:00:07.043Z,9.30
2019-03-28T19:02:35.558Z,9.20
2019-03-28T19:05:18.676Z,9.10
2019-03-28T19:07:35.894Z,9.10
2019-03-28T19:10:06.449Z,9.20
2019-03-28T19:12:34.937Z,9.20
2019-03-28T19:15:04.101Z,9.10
2019-03-28T19:17:33.103Z,9.00
2019-03-28T19:20:02.537Z,8.90
2019-03-28T19:22:30.999Z,9.10
2019-03-28T19:24:59.507Z,9.00
2019-03-28T19:27:30.238Z,9.10
2019-03-28T19:29:58.167Z,8.90
2019-03-28T19:32:29.625Z,9.00
2019-03-28T19:34:56.833Z,9.00
2019-03-28T19:37:25.519Z,9.10
2019-03-28T19:39:53.966Z,9.30
2019-03-28T19:42:22.695Z,9.20
2019-03-28T19:44:52.419Z,9.10
2019-03-28T19:47:20.879Z,9.10
2019-03-28T19:49:49.966Z,9.00
2019-03-28T19:52:18.503Z,9.10
2019-03-28T19:54:47.263Z,9.00
2019-03-28T19:57:15.719Z,9.00
2019-03-28T19:59:44.185Z,9.00
2019-03-28T20:02:14.233Z,9.00
2019-03-28T20:04:43.340Z,9.00
2019-03-28T20:07:21.338Z,9.10
2019-03-28T20:09:42.344Z,9.10
2019-03-28T20:12:10.817Z,9.10
2019-03-28T20:14:39.291Z,9.10
2019-03-28T20:17:07.737Z,9.10
2019-03-28T20:19:36.212Z,9.20
2019-03-28T20:22:04.912Z,9.00
2019-03-28T20:24:33.481Z,9.10
2019-03-28T20:27:01.957Z,9.10
2019-03-28T20:29:33.284Z,9.20
2019-03-28T20:32:00.609Z,9.00
2019-03-28T20:34:29.859Z,9.10
2019-03-28T20:36:58.720Z,9.20
2019-03-28T20:39:27.193Z,9.10
2019-03-28T20:41:55.669Z,9.00
2019-03-28T20:44:24.147Z,9.10
2019-03-28T20:46:52.887Z,9.10
2019-03-28T20:49:21.419Z,9.00
2019-03-28T20:51:49.901Z,9.00
2019-03-28T20:54:18.364Z,8.90
2019-03-28T20:56:46.839Z,9.00
2019-03-28T20:59:18.630Z,8.90
2019-03-28T21:01:47.427Z,9.00
2019-03-28T21:04:15.900Z,9.00
2019-03-28T21:06:46.009Z,8.90
2019-03-28T21:09:14.555Z,8.90
2019-03-28T21:11:43.033Z,8.90
2019-03-28T21:14:11.487Z,8.90
2019-03-28T21:16:39.982Z,8.80
2019-03-28T21:19:08.451Z,8.80
2019-03-28T21:21:36.909Z,8.80
2019-03-28T21:24:05.392Z,8.80
2019-03-28T21:26:33.841Z,8.80
2019-03-28T21:29:02.403Z,8.80
2019-03-28T21:31:30.854Z,8.80
2019-03-28T21:33:59.377Z,8.70
2019-03-28T21:36:30.133Z,8.70
2019-03-28T21:38:58.075Z,8.70
2019-03-28T21:41:26.555Z,8.70
2019-03-28T21:43:55.328Z,8.60
2019-03-28T21:46:24.123Z,8.60
2019-03-28T21:48:52.593Z,8.60
2019-03-28T21:51:21.324Z,8.60
2019-03-28T21:53:49.817Z,8.60
2019-03-28T21:56:18.282Z,8.60
2019-03-28T21:58:46.743Z,8.60
2019-03-28T22:01:15.202Z,8.50
2019-03-28T22:03:43.742Z,8.50
2019-03-28T22:06:12.236Z,8.50
2019-03-28T22:08:40.685Z,8.50
2019-03-28T22:11:09.173Z,8.50
2019-03-28T22:13:38.002Z,8.50
2019-03-28T22:16:07.807Z,8.50
2019-03-28T22:18:36.415Z,8.40
2019-03-28T22:21:04.894Z,8.30
2019-03-28T22:23:33.373Z,8.40
2019-03-28T22:26:02.165Z,8.60
2019-03-28T22:28:30.719Z,8.60
2019-03-28T22:30:59.195Z,8.70
2019-03-28T22:33:27.731Z,8.50
2019-03-28T22:35:56.232Z,8.60
2019-03-28T22:38:24.759Z,8.60
2019-03-28T22:40:53.236Z,8.30
2019-03-28T22:43:21.701Z,8.40
2019-03-28T22:45:50.225Z,8.40
2019-03-28T22:48:18.699Z,8.50
2019-03-28T22:50:47.424Z,8.50
2019-03-28T22:53:15.909Z,8.50
2019-03-28T22:55:44.377Z,8.60
2019-03-28T22:58:12.838Z,8.50
2019-03-28T23:00:45.940Z,8.40
2019-03-28T23:03:16.407Z,8.40
2019-03-28T23:05:45.083Z,8.40
2019-03-28T23:08:13.617Z,8.30
2019-03-28T23:10:42.148Z,8.20
2019-03-28T23:13:10.713Z,8.10
2019-03-28T23:15:39.168Z,8.00
2019-03-28T23:18:07.702Z,7.90
2019-03-28T23:20:36.270Z,7.90
2019-03-28T23:23:05.033Z,8.00
2019-03-28T23:25:33.585Z,8.00
2019-03-28T23:28:02.072Z,8.00
2019-03-28T23:30:30.542Z,7.90
2019-03-28T23:32:59.004Z,7.80
2019-03-28T23:35:27.849Z,7.90
2019-03-28T23:37:56.304Z,8.00
2019-03-28T23:40:26.469Z,7.90
2019-03-28T23:42:55.180Z,7.90
2019-03-28T23:45:23.726Z,7.70
2019-03-28T23:47:52.193Z,7.70
2019-03-28T23:50:20.661Z,7.70
2019-03-28T23:52:49.124Z,7.70
2019-03-28T23:55:18.813Z,7.70
2019-03-28T23:57:47.479Z,7.70
